sensor_id;sensor_type;location;lat;lon;timestamp;P1;durP1;ratioP1;P2;durP2;ratioP2
1366;SDS011;16877;48.810;9.282;2023-10-19T00:02:06;10.80;;;9.80;;
1366;SDS011;16877;48.810;9.282;2023-10-19T00:04:32;11.33;;;10.23;;
1366;SDS011;16877;48.810;9.282;2023-10-19T00:07:01;12.67;;;11.37;;
1366;SDS011;16877;48.810;9.282;2023-10-19T00:09:29;13.37;;;12.00;;
1366;SDS011;16877;48.810;9.282;2023-10-19T00:12:02;11.40;;;10.23;;
1366;SDS011;16877;48.810;9.282;2023-10-19T00:14:29;12.30;;;11.00;;
1366;SDS011;16877;48.810;9.282;2023-10-19T00:16:58;11.03;;;9.93;;
1366;SDS011;16877;48.810;9.282;2023-10-19T00:19:30;10.30;;;9.30;;
1366;SDS011;16877;48.810;9.282;2023-10-19T00:22:03;10.97;;;9.73;;
1366;SDS011;16877;48.810;9.282;2023-10-19T00:24:33;10.13;;;9.20;;
1366;SDS011;16877;48.810;9.282;2023-10-19T00:27:00;9.80;;;8.87;;
1366;SDS011;16877;48.810;9.282;2023-10-19T00:29:31;9.30;;;8.40;;
1366;SDS011;16877;48.810;9.282;2023-10-19T00:32:00;9.20;;;8.30;;
1366;SDS011;16877;48.810;9.282;2023-10-19T00:34:28;9.03;;;8.10;;
1366;SDS011;16877;48.810;9.282;2023-10-19T00:36:55;9.43;;;8.03;;
1366;SDS011;16877;48.810;9.282;2023-10-19T00:39:24;8.27;;;6.73;;
1366;SDS011;16877;48.810;9.282;2023-10-19T00:41:52;6.83;;;6.07;;
1366;SDS011;16877;48.810;9.282;2023-10-19T00:44:22;8.80;;;7.13;;
1366;SDS011;16877;48.810;9.282;2023-10-19T00:47:02;6.70;;;6.00;;
1366;SDS011;16877;48.810;9.282;2023-10-19T00:49:32;5.97;;;5.30;;
1366;SDS011;16877;48.810;9.282;2023-10-19T00:52:00;6.53;;;5.20;;
1366;SDS011;16877;48.810;9.282;2023-10-19T00:54:36;6.00;;;5.30;;
1366;SDS011;16877;48.810;9.282;2023-10-19T00:57:16;8.00;;;5.33;;
1366;SDS011;16877;48.810;9.282;2023-10-19T00:59:47;6.43;;;4.60;;
1366;SDS011;16877;48.810;9.282;2023-10-19T01:02:17;6.93;;;4.90;;
1366;SDS011;16877;48.810;9.282;2023-10-19T01:04:54;5.83;;;5.00;;
1366;SDS011;16877;48.810;9.282;2023-10-19T01:07:25;6.60;;;5.70;;
1366;SDS011;16877;48.810;9.282;2023-10-19T01:09:53;5.60;;;4.77;;
1366;SDS011;16877;48.810;9.282;2023-10-19T01:12:22;7.37;;;5.43;;
1366;SDS011;16877;48.810;9.282;2023-10-19T01:15:05;6.23;;;5.03;;
1366;SDS011;16877;48.810;9.282;2023-10-19T01:17:36;5.80;;;4.73;;
1366;SDS011;16877;48.810;9.282;2023-10-19T01:20:07;5.13;;;4.30;;
1366;SDS011;16877;48.810;9.282;2023-10-19T01:22:47;4.73;;;3.90;;
1366;SDS011;16877;48.810;9.282;2023-10-19T01:25:35;6.63;;;4.47;;
1366;SDS011;16877;48.810;9.282;2023-10-19T01:28:14;5.23;;;4.43;;
1366;SDS011;16877;48.810;9.282;2023-10-19T01:30:42;6.27;;;4.50;;
1366;SDS011;16877;48.810;9.282;2023-10-19T01:33:09;6.93;;;4.57;;
1366;SDS011;16877;48.810;9.282;2023-10-19T01:35:40;6.03;;;4.60;;
1366;SDS011;16877;48.810;9.282;2023-10-19T01:38:25;7.20;;;4.57;;
1366;SDS011;16877;48.810;9.282;2023-10-19T01:40:55;5.20;;;3.93;;
1366;SDS011;16877;48.810;9.282;2023-10-19T01:43:24;5.73;;;4.23;;
1366;SDS011;16877;48.810;9.282;2023-10-19T01:45:51;5.17;;;3.87;;
1366;SDS011;16877;48.810;9.282;2023-10-19T01:48:19;5.43;;;4.27;;
1366;SDS011;16877;48.810;9.282;2023-10-19T01:50:48;5.50;;;3.53;;
1366;SDS011;16877;48.810;9.282;2023-10-19T01:53:15;5.93;;;3.50;;
1366;SDS011;16877;48.810;9.282;2023-10-19T01:55:46;5.63;;;4.50;;
1366;SDS011;16877;48.810;9.282;2023-10-19T01:58:13;5.87;;;4.30;;
1366;SDS011;16877;48.810;9.282;2023-10-19T02:00:39;5.20;;;4.30;;
1366;SDS011;16877;48.810;9.282;2023-10-19T02:03:07;6.57;;;5.60;;
1366;SDS011;16877;48.810;9.282;2023-10-19T02:05:34;7.93;;;6.33;;
1366;SDS011;16877;48.810;9.282;2023-10-19T02:08:05;7.03;;;6.17;;
1366;SDS011;16877;48.810;9.282;2023-10-19T02:10:32;7.03;;;6.40;;
1366;SDS011;16877;48.810;9.282;2023-10-19T02:13:02;9.33;;;7.10;;
1366;SDS011;16877;48.810;9.282;2023-10-19T02:15:31;7.90;;;7.10;;
1366;SDS011;16877;48.810;9.282;2023-10-19T02:18:00;8.70;;;7.90;;
1366;SDS011;16877;48.810;9.282;2023-10-19T02:20:28;8.40;;;7.53;;
1366;SDS011;16877;48.810;9.282;2023-10-19T02:22:54;8.30;;;7.50;;
1366;SDS011;16877;48.810;9.282;2023-10-19T02:25:22;9.40;;;7.87;;
1366;SDS011;16877;48.810;9.282;2023-10-19T02:27:50;8.40;;;7.60;;
1366;SDS011;16877;48.810;9.282;2023-10-19T02:30:19;7.60;;;6.90;;
1366;SDS011;16877;48.810;9.282;2023-10-19T02:32:44;8.13;;;7.10;;
1366;SDS011;16877;48.810;9.282;2023-10-19T02:37:39;7.90;;;7.10;;
1366;SDS011;16877;48.810;9.282;2023-10-19T02:40:06;7.93;;;7.13;;
1366;SDS011;16877;48.810;9.282;2023-10-19T02:42:44;7.80;;;6.40;;
1366;SDS011;16877;48.810;9.282;2023-10-19T02:45:12;6.93;;;5.77;;
1366;SDS011;16877;48.810;9.282;2023-10-19T02:47:43;6.70;;;6.00;;
1366;SDS011;16877;48.810;9.282;2023-10-19T02:50:09;6.20;;;5.60;;
1366;SDS011;16877;48.810;9.282;2023-10-19T02:52:38;5.80;;;5.03;;
1366;SDS011;16877;48.810;9.282;2023-10-19T02:55:06;7.13;;;4.90;;
1366;SDS011;16877;48.810;9.282;2023-10-19T02:57:34;5.73;;;4.70;;
1366;SDS011;16877;48.810;9.282;2023-10-19T03:00:00;5.20;;;4.57;;
1366;SDS011;16877;48.810;9.282;2023-10-19T03:02:33;6.70;;;4.30;;
1366;SDS011;16877;48.810;9.282;2023-10-19T03:05:03;5.97;;;4.53;;
1366;SDS011;16877;48.810;9.282;2023-10-19T03:07:37;8.97;;;5.17;;
1366;SDS011;16877;48.810;9.282;2023-10-19T03:10:05;5.10;;;3.87;;
1366;SDS011;16877;48.810;9.282;2023-10-19T03:12:31;7.53;;;3.93;;
1366;SDS011;16877;48.810;9.282;2023-10-19T03:14:58;3.40;;;2.80;;
1366;SDS011;16877;48.810;9.282;2023-10-19T03:17:25;4.03;;;3.33;;
1366;SDS011;16877;48.810;9.282;2023-10-19T03:19:54;7.73;;;3.47;;
1366;SDS011;16877;48.810;9.282;2023-10-19T03:22:22;4.27;;;3.47;;
1366;SDS011;16877;48.810;9.282;2023-10-19T03:24:48;5.30;;;3.10;;
1366;SDS011;16877;48.810;9.282;2023-10-19T03:27:24;4.70;;;3.20;;
1366;SDS011;16877;48.810;9.282;2023-10-19T03:29:50;4.67;;;3.70;;
1366;SDS011;16877;48.810;9.282;2023-10-19T03:32:19;6.50;;;4.07;;
1366;SDS011;16877;48.810;9.282;2023-10-19T03:34:51;5.93;;;3.63;;
1366;SDS011;16877;48.810;9.282;2023-10-19T03:37:20;5.63;;;3.53;;
1366;SDS011;16877;48.810;9.282;2023-10-19T03:39:50;4.47;;;2.70;;
1366;SDS011;16877;48.810;9.282;2023-10-19T03:42:17;5.23;;;3.63;;
1366;SDS011;16877;48.810;9.282;2023-10-19T03:44:46;4.80;;;3.30;;
1366;SDS011;16877;48.810;9.282;2023-10-19T03:47:18;5.00;;;3.60;;
1366;SDS011;16877;48.810;9.282;2023-10-19T03:49:45;4.23;;;2.97;;
1366;SDS011;16877;48.810;9.282;2023-10-19T03:52:13;6.73;;;4.00;;
1366;SDS011;16877;48.810;9.282;2023-10-19T03:54:48;4.73;;;3.30;;
1366;SDS011;16877;48.810;9.282;2023-10-19T03:57:15;4.63;;;3.33;;
1366;SDS011;16877;48.810;9.282;2023-10-19T03:59:46;5.90;;;3.33;;
1366;SDS011;16877;48.810;9.282;2023-10-19T04:02:14;3.53;;;2.70;;
1366;SDS011;16877;48.810;9.282;2023-10-19T04:04:45;5.90;;;3.83;;
1366;SDS011;16877;48.810;9.282;2023-10-19T04:07:13;6.10;;;3.50;;
1366;SDS011;16877;48.810;9.282;2023-10-19T04:09:47;5.60;;;3.87;;
1366;SDS011;16877;48.810;9.282;2023-10-19T04:12:25;4.67;;;3.13;;
1366;SDS011;16877;48.810;9.282;2023-10-19T04:14:53;5.70;;;3.20;;
1366;SDS011;16877;48.810;9.282;2023-10-19T04:17:20;5.00;;;3.10;;
1366;SDS011;16877;48.810;9.282;2023-10-19T04:19:48;6.47;;;4.37;;
1366;SDS011;16877;48.810;9.282;2023-10-19T04:22:16;3.90;;;3.27;;
1366;SDS011;16877;48.810;9.282;2023-10-19T04:24:50;5.13;;;3.43;;
1366;SDS011;16877;48.810;9.282;2023-10-19T04:27:17;4.23;;;2.97;;
1366;SDS011;16877;48.810;9.282;2023-10-19T04:29:46;4.47;;;3.53;;
1366;SDS011;16877;48.810;9.282;2023-10-19T04:32:16;6.77;;;3.60;;
1366;SDS011;16877;48.810;9.282;2023-10-19T04:34:50;4.50;;;2.80;;
1366;SDS011;16877;48.810;9.282;2023-10-19T04:37:17;3.90;;;2.93;;
1366;SDS011;16877;48.810;9.282;2023-10-19T04:39:44;5.43;;;3.37;;
1366;SDS011;16877;48.810;9.282;2023-10-19T04:42:12;4.10;;;2.90;;
1366;SDS011;16877;48.810;9.282;2023-10-19T04:44:39;5.17;;;2.80;;
1366;SDS011;16877;48.810;9.282;2023-10-19T04:47:06;6.13;;;3.10;;
1366;SDS011;16877;48.810;9.282;2023-10-19T04:49:33;4.30;;;3.13;;
1366;SDS011;16877;48.810;9.282;2023-10-19T04:51:59;5.37;;;3.43;;
1366;SDS011;16877;48.810;9.282;2023-10-19T04:54:28;7.37;;;3.33;;
1366;SDS011;16877;48.810;9.282;2023-10-19T04:56:55;6.77;;;3.80;;
1366;SDS011;16877;48.810;9.282;2023-10-19T04:59:23;5.13;;;3.10;;
1366;SDS011;16877;48.810;9.282;2023-10-19T05:01:50;5.53;;;3.43;;
1366;SDS011;16877;48.810;9.282;2023-10-19T05:04:17;5.00;;;3.23;;
1366;SDS011;16877;48.810;9.282;2023-10-19T05:06:43;5.53;;;3.70;;
1366;SDS011;16877;48.810;9.282;2023-10-19T05:09:10;4.50;;;3.53;;
1366;SDS011;16877;48.810;9.282;2023-10-19T05:11:37;4.73;;;3.40;;
1366;SDS011;16877;48.810;9.282;2023-10-19T05:14:04;4.27;;;3.00;;
1366;SDS011;16877;48.810;9.282;2023-10-19T05:16:32;5.30;;;3.90;;
1366;SDS011;16877;48.810;9.282;2023-10-19T05:18:59;5.60;;;3.57;;
1366;SDS011;16877;48.810;9.282;2023-10-19T05:21:26;5.77;;;3.57;;
1366;SDS011;16877;48.810;9.282;2023-10-19T05:23:55;9.57;;;4.70;;
1366;SDS011;16877;48.810;9.282;2023-10-19T05:26:22;4.37;;;3.20;;
1366;SDS011;16877;48.810;9.282;2023-10-19T05:28:48;6.17;;;4.27;;
1366;SDS011;16877;48.810;9.282;2023-10-19T05:31:15;5.27;;;4.13;;
1366;SDS011;16877;48.810;9.282;2023-10-19T05:33:43;5.13;;;3.70;;
1366;SDS011;16877;48.810;9.282;2023-10-19T05:36:13;4.20;;;3.30;;
1366;SDS011;16877;48.810;9.282;2023-10-19T05:38:40;5.00;;;3.17;;
1366;SDS011;16877;48.810;9.282;2023-10-19T05:41:07;4.20;;;3.67;;
1366;SDS011;16877;48.810;9.282;2023-10-19T05:43:33;5.60;;;3.60;;
1366;SDS011;16877;48.810;9.282;2023-10-19T05:46:00;4.20;;;3.03;;
1366;SDS011;16877;48.810;9.282;2023-10-19T05:48:27;5.13;;;3.80;;
1366;SDS011;16877;48.810;9.282;2023-10-19T05:50:55;5.00;;;2.97;;
1366;SDS011;16877;48.810;9.282;2023-10-19T05:53:22;4.93;;;3.33;;
1366;SDS011;16877;48.810;9.282;2023-10-19T05:55:48;5.40;;;3.07;;
1366;SDS011;16877;48.810;9.282;2023-10-19T05:58:15;5.83;;;3.37;;
1366;SDS011;16877;48.810;9.282;2023-10-19T06:00:42;6.97;;;3.60;;
1366;SDS011;16877;48.810;9.282;2023-10-19T06:03:09;6.90;;;3.47;;
1366;SDS011;16877;48.810;9.282;2023-10-19T06:05:35;6.30;;;3.27;;
1366;SDS011;16877;48.810;9.282;2023-10-19T06:08:04;5.27;;;3.40;;
1366;SDS011;16877;48.810;9.282;2023-10-19T06:10:31;4.03;;;3.23;;
1366;SDS011;16877;48.810;9.282;2023-10-19T06:12:57;5.67;;;3.43;;
1366;SDS011;16877;48.810;9.282;2023-10-19T06:15:24;5.17;;;4.50;;
1366;SDS011;16877;48.810;9.282;2023-10-19T06:17:53;4.40;;;3.57;;
1366;SDS011;16877;48.810;9.282;2023-10-19T06:20:20;4.70;;;3.73;;
1366;SDS011;16877;48.810;9.282;2023-10-19T06:22:49;5.03;;;3.73;;
1366;SDS011;16877;48.810;9.282;2023-10-19T06:25:19;5.83;;;4.87;;
1366;SDS011;16877;48.810;9.282;2023-10-19T06:27:47;5.10;;;4.60;;
1366;SDS011;16877;48.810;9.282;2023-10-19T06:30:15;6.63;;;5.10;;
1366;SDS011;16877;48.810;9.282;2023-10-19T06:32:45;5.53;;;4.57;;
1366;SDS011;16877;48.810;9.282;2023-10-19T06:35:13;6.37;;;5.37;;
1366;SDS011;16877;48.810;9.282;2023-10-19T06:37:40;6.13;;;5.23;;
1366;SDS011;16877;48.810;9.282;2023-10-19T06:40:07;5.60;;;4.87;;
1366;SDS011;16877;48.810;9.282;2023-10-19T06:42:37;5.70;;;5.10;;
1366;SDS011;16877;48.810;9.282;2023-10-19T06:45:05;5.77;;;4.90;;
1366;SDS011;16877;48.810;9.282;2023-10-19T06:47:35;5.93;;;5.23;;
1366;SDS011;16877;48.810;9.282;2023-10-19T06:50:03;6.20;;;5.40;;
1366;SDS011;16877;48.810;9.282;2023-10-19T06:52:32;7.80;;;5.10;;
1366;SDS011;16877;48.810;9.282;2023-10-19T06:55:01;7.77;;;5.97;;
1366;SDS011;16877;48.810;9.282;2023-10-19T06:57:28;6.50;;;5.43;;
1366;SDS011;16877;48.810;9.282;2023-10-19T06:59:56;5.87;;;5.27;;
1366;SDS011;16877;48.810;9.282;2023-10-19T07:02:22;6.63;;;5.90;;
1366;SDS011;16877;48.810;9.282;2023-10-19T07:04:49;6.20;;;5.50;;
1366;SDS011;16877;48.810;9.282;2023-10-19T07:07:17;8.13;;;6.50;;
1366;SDS011;16877;48.810;9.282;2023-10-19T07:09:44;7.47;;;5.60;;
1366;SDS011;16877;48.810;9.282;2023-10-19T07:12:11;6.40;;;5.60;;
1366;SDS011;16877;48.810;9.282;2023-10-19T07:14:38;7.80;;;5.77;;
1366;SDS011;16877;48.810;9.282;2023-10-19T07:17:07;6.63;;;5.37;;
1366;SDS011;16877;48.810;9.282;2023-10-19T07:19:34;7.23;;;5.10;;
1366;SDS011;16877;48.810;9.282;2023-10-19T07:22:01;7.03;;;5.97;;
1366;SDS011;16877;48.810;9.282;2023-10-19T07:24:29;6.33;;;5.73;;
1366;SDS011;16877;48.810;9.282;2023-10-19T07:26:55;5.67;;;5.10;;
1366;SDS011;16877;48.810;9.282;2023-10-19T07:29:29;6.40;;;5.60;;
1366;SDS011;16877;48.810;9.282;2023-10-19T07:31:57;7.53;;;5.47;;
1366;SDS011;16877;48.810;9.282;2023-10-19T07:34:25;7.83;;;6.40;;
1366;SDS011;16877;48.810;9.282;2023-10-19T07:36:54;7.20;;;5.20;;
1366;SDS011;16877;48.810;9.282;2023-10-19T07:39:24;7.70;;;6.13;;
1366;SDS011;16877;48.810;9.282;2023-10-19T07:41:51;6.23;;;4.97;;
1366;SDS011;16877;48.810;9.282;2023-10-19T07:44:18;6.80;;;5.77;;
1366;SDS011;16877;48.810;9.282;2023-10-19T07:46:45;6.50;;;5.80;;
1366;SDS011;16877;48.810;9.282;2023-10-19T07:49:11;6.43;;;5.67;;
1366;SDS011;16877;48.810;9.282;2023-10-19T07:51:42;6.77;;;4.90;;
1366;SDS011;16877;48.810;9.282;2023-10-19T07:54:11;6.47;;;5.57;;
1366;SDS011;16877;48.810;9.282;2023-10-19T07:56:38;5.00;;;4.40;;
1366;SDS011;16877;48.810;9.282;2023-10-19T07:59:05;5.87;;;5.37;;
1366;SDS011;16877;48.810;9.282;2023-10-19T08:01:32;5.43;;;4.77;;
1366;SDS011;16877;48.810;9.282;2023-10-19T08:03:59;8.73;;;5.37;;
1366;SDS011;16877;48.810;9.282;2023-10-19T08:06:26;4.90;;;4.40;;
1366;SDS011;16877;48.810;9.282;2023-10-19T08:08:54;5.73;;;5.00;;
1366;SDS011;16877;48.810;9.282;2023-10-19T08:11:21;5.00;;;4.40;;
1366;SDS011;16877;48.810;9.282;2023-10-19T08:13:48;6.07;;;5.00;;
1366;SDS011;16877;48.810;9.282;2023-10-19T08:16:15;7.20;;;4.87;;
1366;SDS011;16877;48.810;9.282;2023-10-19T08:18:42;6.33;;;5.50;;
1366;SDS011;16877;48.810;9.282;2023-10-19T08:21:09;5.83;;;4.83;;
1366;SDS011;16877;48.810;9.282;2023-10-19T08:23:37;6.23;;;5.53;;
1366;SDS011;16877;48.810;9.282;2023-10-19T08:26:06;6.10;;;4.97;;
1366;SDS011;16877;48.810;9.282;2023-10-19T08:28:33;5.73;;;4.93;;
1366;SDS011;16877;48.810;9.282;2023-10-19T08:31:00;6.23;;;5.50;;
1366;SDS011;16877;48.810;9.282;2023-10-19T08:33:27;6.43;;;5.47;;
1366;SDS011;16877;48.810;9.282;2023-10-19T08:35:54;5.30;;;4.80;;
1366;SDS011;16877;48.810;9.282;2023-10-19T08:38:21;6.00;;;5.20;;
1366;SDS011;16877;48.810;9.282;2023-10-19T08:40:48;6.33;;;4.87;;
1366;SDS011;16877;48.810;9.282;2023-10-19T08:43:17;6.67;;;5.10;;
1366;SDS011;16877;48.810;9.282;2023-10-19T08:45:46;6.40;;;4.90;;
1366;SDS011;16877;48.810;9.282;2023-10-19T08:48:14;5.27;;;4.57;;
1366;SDS011;16877;48.810;9.282;2023-10-19T08:50:41;6.00;;;5.40;;
1366;SDS011;16877;48.810;9.282;2023-10-19T08:53:08;7.43;;;4.47;;
1366;SDS011;16877;48.810;9.282;2023-10-19T08:55:38;6.60;;;5.43;;
1366;SDS011;16877;48.810;9.282;2023-10-19T08:58:05;6.07;;;5.43;;
1366;SDS011;16877;48.810;9.282;2023-10-19T09:00:43;5.77;;;4.30;;
1366;SDS011;16877;48.810;9.282;2023-10-19T09:03:13;4.93;;;4.43;;
1366;SDS011;16877;48.810;9.282;2023-10-19T09:05:41;6.00;;;4.47;;
1366;SDS011;16877;48.810;9.282;2023-10-19T09:08:09;7.83;;;4.00;;
1366;SDS011;16877;48.810;9.282;2023-10-19T09:10:42;6.70;;;4.20;;
1366;SDS011;16877;48.810;9.282;2023-10-19T09:13:10;5.77;;;4.50;;
1366;SDS011;16877;48.810;9.282;2023-10-19T09:15:39;5.87;;;4.80;;
1366;SDS011;16877;48.810;9.282;2023-10-19T09:18:14;5.50;;;4.30;;
1366;SDS011;16877;48.810;9.282;2023-10-19T09:20:41;5.57;;;3.50;;
1366;SDS011;16877;48.810;9.282;2023-10-19T09:23:17;7.20;;;4.23;;
1366;SDS011;16877;48.810;9.282;2023-10-19T09:25:45;4.13;;;3.70;;
1366;SDS011;16877;48.810;9.282;2023-10-19T09:28:13;5.57;;;3.90;;
1366;SDS011;16877;48.810;9.282;2023-10-19T09:30:39;4.40;;;3.13;;
1366;SDS011;16877;48.810;9.282;2023-10-19T09:33:09;3.77;;;3.07;;
1366;SDS011;16877;48.810;9.282;2023-10-19T09:35:37;4.40;;;3.50;;
1366;SDS011;16877;48.810;9.282;2023-10-19T09:38:08;4.70;;;2.63;;
1366;SDS011;16877;48.810;9.282;2023-10-19T09:40:35;5.73;;;2.83;;
1366;SDS011;16877;48.810;9.282;2023-10-19T09:43:04;4.10;;;3.00;;
1366;SDS011;16877;48.810;9.282;2023-10-19T09:45:32;8.90;;;3.30;;
1366;SDS011;16877;48.810;9.282;2023-10-19T09:48:03;4.33;;;2.93;;
1366;SDS011;16877;48.810;9.282;2023-10-19T09:50:33;4.53;;;3.10;;
1366;SDS011;16877;48.810;9.282;2023-10-19T09:53:02;3.90;;;2.70;;
1366;SDS011;16877;48.810;9.282;2023-10-19T09:55:37;4.50;;;2.83;;
1366;SDS011;16877;48.810;9.282;2023-10-19T09:58:06;5.63;;;3.00;;
1366;SDS011;16877;48.810;9.282;2023-10-19T10:00:42;4.07;;;2.90;;
1366;SDS011;16877;48.810;9.282;2023-10-19T10:06:07;6.57;;;2.70;;
1366;SDS011;16877;48.810;9.282;2023-10-19T10:08:36;6.40;;;3.63;;
1366;SDS011;16877;48.810;9.282;2023-10-19T10:11:13;3.57;;;2.90;;
1366;SDS011;16877;48.810;9.282;2023-10-19T10:13:43;4.27;;;2.60;;
1366;SDS011;16877;48.810;9.282;2023-10-19T10:16:12;5.47;;;2.50;;
1366;SDS011;16877;48.810;9.282;2023-10-19T10:18:40;8.63;;;3.30;;
1366;SDS011;16877;48.810;9.282;2023-10-19T10:21:10;5.73;;;3.10;;
1366;SDS011;16877;48.810;9.282;2023-10-19T10:23:42;3.33;;;2.47;;
1366;SDS011;16877;48.810;9.282;2023-10-19T10:26:10;3.30;;;2.53;;
1366;SDS011;16877;48.810;9.282;2023-10-19T10:28:38;5.77;;;2.40;;
1366;SDS011;16877;48.810;9.282;2023-10-19T10:31:13;3.40;;;2.73;;
1366;SDS011;16877;48.810;9.282;2023-10-19T10:33:42;4.00;;;2.50;;
1366;SDS011;16877;48.810;9.282;2023-10-19T10:36:13;7.20;;;3.27;;
1366;SDS011;16877;48.810;9.282;2023-10-19T10:38:43;5.60;;;2.33;;
1366;SDS011;16877;48.810;9.282;2023-10-19T10:41:10;4.40;;;3.10;;
1366;SDS011;16877;48.810;9.282;2023-10-19T10:43:47;3.50;;;2.67;;
1366;SDS011;16877;48.810;9.282;2023-10-19T10:46:17;4.13;;;3.37;;
1366;SDS011;16877;48.810;9.282;2023-10-19T10:48:45;4.23;;;2.70;;
1366;SDS011;16877;48.810;9.282;2023-10-19T10:51:16;4.57;;;2.50;;
1366;SDS011;16877;48.810;9.282;2023-10-19T10:53:49;3.67;;;2.80;;
1366;SDS011;16877;48.810;9.282;2023-10-19T10:56:18;3.27;;;2.60;;
1366;SDS011;16877;48.810;9.282;2023-10-19T10:58:45;4.30;;;2.70;;
1366;SDS011;16877;48.810;9.282;2023-10-19T11:01:12;4.63;;;2.47;;
1366;SDS011;16877;48.810;9.282;2023-10-19T11:03:39;4.57;;;2.80;;
1366;SDS011;16877;48.810;9.282;2023-10-19T11:06:06;4.00;;;2.40;;
1366;SDS011;16877;48.810;9.282;2023-10-19T11:08:34;3.57;;;2.10;;
1366;SDS011;16877;48.810;9.282;2023-10-19T11:11:03;6.10;;;1.97;;
1366;SDS011;16877;48.810;9.282;2023-10-19T11:13:31;4.20;;;1.90;;
1366;SDS011;16877;48.810;9.282;2023-10-19T11:16:00;3.57;;;2.07;;
1366;SDS011;16877;48.810;9.282;2023-10-19T11:18:29;3.80;;;2.33;;
1366;SDS011;16877;48.810;9.282;2023-10-19T11:20:57;2.70;;;1.80;;
1366;SDS011;16877;48.810;9.282;2023-10-19T11:23:39;3.40;;;2.13;;
1366;SDS011;16877;48.810;9.282;2023-10-19T11:26:08;3.73;;;2.50;;
1366;SDS011;16877;48.810;9.282;2023-10-19T11:28:36;2.80;;;1.67;;
1366;SDS011;16877;48.810;9.282;2023-10-19T11:31:12;6.10;;;2.80;;
1366;SDS011;16877;48.810;9.282;2023-10-19T11:33:40;4.30;;;2.43;;
1366;SDS011;16877;48.810;9.282;2023-10-19T11:36:08;4.33;;;2.90;;
1366;SDS011;16877;48.810;9.282;2023-10-19T11:38:37;4.53;;;3.13;;
1366;SDS011;16877;48.810;9.282;2023-10-19T11:41:05;3.60;;;2.67;;
1366;SDS011;16877;48.810;9.282;2023-10-19T11:43:34;4.23;;;2.57;;
1366;SDS011;16877;48.810;9.282;2023-10-19T11:46:00;3.80;;;2.90;;
1366;SDS011;16877;48.810;9.282;2023-10-19T11:48:29;5.63;;;2.80;;
1366;SDS011;16877;48.810;9.282;2023-10-19T11:50:56;4.03;;;2.50;;
1366;SDS011;16877;48.810;9.282;2023-10-19T11:53:23;5.03;;;3.10;;
1366;SDS011;16877;48.810;9.282;2023-10-19T11:55:49;7.63;;;2.67;;
1366;SDS011;16877;48.810;9.282;2023-10-19T11:58:16;5.30;;;2.53;;
1366;SDS011;16877;48.810;9.282;2023-10-19T12:00:45;5.07;;;3.10;;
1366;SDS011;16877;48.810;9.282;2023-10-19T12:03:11;6.30;;;2.90;;
1366;SDS011;16877;48.810;9.282;2023-10-19T12:05:38;5.37;;;3.20;;
1366;SDS011;16877;48.810;9.282;2023-10-19T12:08:07;5.67;;;3.70;;
1366;SDS011;16877;48.810;9.282;2023-10-19T12:10:34;5.23;;;3.27;;
1366;SDS011;16877;48.810;9.282;2023-10-19T12:13:01;5.57;;;3.23;;
1366;SDS011;16877;48.810;9.282;2023-10-19T12:15:29;5.17;;;3.10;;
1366;SDS011;16877;48.810;9.282;2023-10-19T12:17:57;4.70;;;3.00;;
1366;SDS011;16877;48.810;9.282;2023-10-19T12:20:24;3.87;;;2.70;;
1366;SDS011;16877;48.810;9.282;2023-10-19T12:22:51;4.27;;;2.80;;
1366;SDS011;16877;48.810;9.282;2023-10-19T12:25:19;5.10;;;2.67;;
1366;SDS011;16877;48.810;9.282;2023-10-19T12:27:46;3.40;;;2.33;;
1366;SDS011;16877;48.810;9.282;2023-10-19T12:30:14;4.10;;;2.77;;
1366;SDS011;16877;48.810;9.282;2023-10-19T12:32:45;4.77;;;2.87;;
1366;SDS011;16877;48.810;9.282;2023-10-19T12:35:15;4.30;;;3.00;;
1366;SDS011;16877;48.810;9.282;2023-10-19T12:37:45;3.60;;;2.90;;
1366;SDS011;16877;48.810;9.282;2023-10-19T12:40:16;6.83;;;3.50;;
1366;SDS011;16877;48.810;9.282;2023-10-19T12:42:53;5.30;;;2.97;;
1366;SDS011;16877;48.810;9.282;2023-10-19T12:45:20;6.73;;;3.20;;
1366;SDS011;16877;48.810;9.282;2023-10-19T12:47:47;7.37;;;2.77;;
1366;SDS011;16877;48.810;9.282;2023-10-19T12:50:15;4.60;;;2.90;;
1366;SDS011;16877;48.810;9.282;2023-10-19T12:52:42;7.00;;;2.80;;
1366;SDS011;16877;48.810;9.282;2023-10-19T12:55:10;3.80;;;2.60;;
1366;SDS011;16877;48.810;9.282;2023-10-19T12:57:37;4.30;;;2.63;;
1366;SDS011;16877;48.810;9.282;2023-10-19T13:00:06;3.60;;;2.40;;
1366;SDS011;16877;48.810;9.282;2023-10-19T13:02:47;4.03;;;2.20;;
1366;SDS011;16877;48.810;9.282;2023-10-19T13:05:15;3.83;;;2.17;;
1366;SDS011;16877;48.810;9.282;2023-10-19T13:07:43;3.27;;;1.93;;
1366;SDS011;16877;48.810;9.282;2023-10-19T13:10:10;4.57;;;2.90;;
1366;SDS011;16877;48.810;9.282;2023-10-19T13:12:37;4.23;;;2.50;;
1366;SDS011;16877;48.810;9.282;2023-10-19T13:15:04;3.67;;;2.63;;
1366;SDS011;16877;48.810;9.282;2023-10-19T13:17:32;4.97;;;2.50;;
1366;SDS011;16877;48.810;9.282;2023-10-19T13:20:00;4.40;;;2.70;;
1366;SDS011;16877;48.810;9.282;2023-10-19T13:22:41;5.17;;;2.53;;
1366;SDS011;16877;48.810;9.282;2023-10-19T13:25:09;3.57;;;2.50;;
1366;SDS011;16877;48.810;9.282;2023-10-19T13:27:37;4.17;;;2.50;;
1366;SDS011;16877;48.810;9.282;2023-10-19T13:30:07;4.93;;;3.23;;
1366;SDS011;16877;48.810;9.282;2023-10-19T13:32:36;4.50;;;3.47;;
1366;SDS011;16877;48.810;9.282;2023-10-19T13:35:03;4.40;;;2.90;;
1366;SDS011;16877;48.810;9.282;2023-10-19T13:37:31;3.90;;;3.00;;
1366;SDS011;16877;48.810;9.282;2023-10-19T13:39:59;6.07;;;3.13;;
1366;SDS011;16877;48.810;9.282;2023-10-19T13:42:25;4.17;;;3.77;;
1366;SDS011;16877;48.810;9.282;2023-10-19T13:44:54;4.37;;;3.27;;
1366;SDS011;16877;48.810;9.282;2023-10-19T13:47:21;4.10;;;3.23;;
1366;SDS011;16877;48.810;9.282;2023-10-19T13:49:48;5.33;;;4.07;;
1366;SDS011;16877;48.810;9.282;2023-10-19T13:52:14;4.57;;;3.23;;
1366;SDS011;16877;48.810;9.282;2023-10-19T13:54:41;7.17;;;4.07;;
1366;SDS011;16877;48.810;9.282;2023-10-19T13:57:09;5.43;;;3.83;;
1366;SDS011;16877;48.810;9.282;2023-10-19T13:59:36;4.27;;;3.70;;
1366;SDS011;16877;48.810;9.282;2023-10-19T14:02:03;5.47;;;3.60;;
1366;SDS011;16877;48.810;9.282;2023-10-19T14:04:30;4.50;;;3.57;;
1366;SDS011;16877;48.810;9.282;2023-10-19T14:06:57;4.00;;;3.03;;
1366;SDS011;16877;48.810;9.282;2023-10-19T14:09:24;4.30;;;2.90;;
1366;SDS011;16877;48.810;9.282;2023-10-19T14:11:53;5.70;;;3.33;;
1366;SDS011;16877;48.810;9.282;2023-10-19T14:14:21;4.40;;;3.27;;
1366;SDS011;16877;48.810;9.282;2023-10-19T14:16:47;4.07;;;3.13;;
1366;SDS011;16877;48.810;9.282;2023-10-19T14:19:15;5.03;;;3.47;;
1366;SDS011;16877;48.810;9.282;2023-10-19T14:21:42;5.50;;;3.37;;
1366;SDS011;16877;48.810;9.282;2023-10-19T14:24:11;6.03;;;3.83;;
1366;SDS011;16877;48.810;9.282;2023-10-19T14:26:37;4.80;;;3.50;;
1366;SDS011;16877;48.810;9.282;2023-10-19T14:29:07;5.80;;;3.37;;
1366;SDS011;16877;48.810;9.282;2023-10-19T14:31:35;3.73;;;2.63;;
1366;SDS011;16877;48.810;9.282;2023-10-19T14:34:02;4.37;;;2.97;;
1366;SDS011;16877;48.810;9.282;2023-10-19T14:36:29;4.60;;;2.93;;
1366;SDS011;16877;48.810;9.282;2023-10-19T14:38:56;5.77;;;3.57;;
1366;SDS011;16877;48.810;9.282;2023-10-19T14:41:23;6.77;;;3.20;;
1366;SDS011;16877;48.810;9.282;2023-10-19T14:43:50;6.00;;;3.50;;
1366;SDS011;16877;48.810;9.282;2023-10-19T14:46:17;6.10;;;3.00;;
1366;SDS011;16877;48.810;9.282;2023-10-19T14:48:45;3.73;;;2.60;;
1366;SDS011;16877;48.810;9.282;2023-10-19T14:51:11;5.33;;;2.70;;
1366;SDS011;16877;48.810;9.282;2023-10-19T14:53:38;4.20;;;3.37;;
1366;SDS011;16877;48.810;9.282;2023-10-19T14:56:05;5.53;;;3.60;;
1366;SDS011;16877;48.810;9.282;2023-10-19T14:58:33;3.53;;;3.20;;
1366;SDS011;16877;48.810;9.282;2023-10-19T15:00:59;5.07;;;3.50;;
1366;SDS011;16877;48.810;9.282;2023-10-19T15:03:26;5.00;;;3.70;;
1366;SDS011;16877;48.810;9.282;2023-10-19T15:05:55;9.17;;;4.43;;
1366;SDS011;16877;48.810;9.282;2023-10-19T15:08:24;5.20;;;3.50;;
1366;SDS011;16877;48.810;9.282;2023-10-19T15:10:53;3.77;;;3.37;;
1366;SDS011;16877;48.810;9.282;2023-10-19T15:13:20;4.80;;;3.27;;
1366;SDS011;16877;48.810;9.282;2023-10-19T15:15:47;4.70;;;4.00;;